sensor_id;sensor_type;location;lat;lon;timestamp;P1;durP1;ratioP1;P2;durP2;ratioP2
16705;SDS011;8469;60.136;15.180;2023-07-16T00:01:18;5.70;;;2.45;;
16705;SDS011;8469;60.136;15.180;2023-07-16T00:03:45;2.87;;;2.30;;
16705;SDS011;8469;60.136;15.180;2023-07-16T00:06:12;4.60;;;2.40;;
16705;SDS011;8469;60.136;15.180;2023-07-16T00:08:40;4.17;;;2.37;;
16705;SDS011;8469;60.136;15.180;2023-07-16T00:11:07;7.65;;;2.60;;
16705;SDS011;8469;60.136;15.180;2023-07-16T00:13:34;4.90;;;2.10;;
16705;SDS011;8469;60.136;15.180;2023-07-16T00:16:01;4.12;;;2.33;;
16705;SDS011;8469;60.136;15.180;2023-07-16T00:18:30;2.77;;;2.20;;
16705;SDS011;8469;60.136;15.180;2023-07-16T00:20:57;4.25;;;2.30;;
16705;SDS011;8469;60.136;15.180;2023-07-16T00:23:24;4.22;;;2.45;;
16705;SDS011;8469;60.136;15.180;2023-07-16T00:25:52;5.67;;;2.35;;
16705;SDS011;8469;60.136;15.180;2023-07-16T00:28:19;5.22;;;2.60;;
16705;SDS011;8469;60.136;15.180;2023-07-16T00:30:46;4.20;;;2.50;;
16705;SDS011;8469;60.136;15.180;2023-07-16T00:33:14;5.35;;;2.60;;
16705;SDS011;8469;60.136;15.180;2023-07-16T00:35:48;3.85;;;2.27;;
16705;SDS011;8469;60.136;15.180;2023-07-16T00:38:18;4.40;;;2.37;;
16705;SDS011;8469;60.136;15.180;2023-07-16T00:40:46;3.50;;;2.37;;
16705;SDS011;8469;60.136;15.180;2023-07-16T00:43:13;4.67;;;2.65;;
16705;SDS011;8469;60.136;15.180;2023-07-16T00:45:41;4.35;;;2.65;;
16705;SDS011;8469;60.136;15.180;2023-07-16T00:48:09;6.83;;;2.47;;
16705;SDS011;8469;60.136;15.180;2023-07-16T00:50:36;6.62;;;2.72;;
16705;SDS011;8469;60.136;15.180;2023-07-16T00:53:05;4.17;;;2.60;;
16705;SDS011;8469;60.136;15.180;2023-07-16T00:55:33;3.75;;;2.50;;
16705;SDS011;8469;60.136;15.180;2023-07-16T00:58:04;5.40;;;2.95;;
16705;SDS011;8469;60.136;15.180;2023-07-16T01:00:37;3.58;;;2.83;;
16705;SDS011;8469;60.136;15.180;2023-07-16T01:03:06;4.20;;;2.98;;
16705;SDS011;8469;60.136;15.180;2023-07-16T01:05:52;3.92;;;2.67;;
16705;SDS011;8469;60.136;15.180;2023-07-16T01:11:06;4.53;;;3.00;;
16705;SDS011;8469;60.136;15.180;2023-07-16T01:13:34;4.80;;;2.80;;
16705;SDS011;8469;60.136;15.180;2023-07-16T01:16:02;5.15;;;2.72;;
16705;SDS011;8469;60.136;15.180;2023-07-16T01:18:30;6.10;;;2.80;;
16705;SDS011;8469;60.136;15.180;2023-07-16T01:20:57;5.33;;;3.12;;
16705;SDS011;8469;60.136;15.180;2023-07-16T01:31:39;4.70;;;2.87;;
16705;SDS011;8469;60.136;15.180;2023-07-16T01:34:07;5.20;;;2.75;;
16705;SDS011;8469;60.136;15.180;2023-07-16T01:36:35;3.92;;;2.87;;
16705;SDS011;8469;60.136;15.180;2023-07-16T01:39:03;6.03;;;3.05;;
16705;SDS011;8469;60.136;15.180;2023-07-16T01:41:31;5.65;;;3.00;;
16705;SDS011;8469;60.136;15.180;2023-07-16T01:43:58;7.10;;;3.27;;
16705;SDS011;8469;60.136;15.180;2023-07-16T01:46:25;5.20;;;3.00;;
16705;SDS011;8469;60.136;15.180;2023-07-16T01:48:53;4.15;;;3.45;;
16705;SDS011;8469;60.136;15.180;2023-07-16T01:51:20;5.33;;;3.30;;
16705;SDS011;8469;60.136;15.180;2023-07-16T01:53:47;4.40;;;3.22;;
16705;SDS011;8469;60.136;15.180;2023-07-16T01:56:15;6.83;;;3.33;;
16705;SDS011;8469;60.136;15.180;2023-07-16T01:58:42;6.78;;;3.33;;
16705;SDS011;8469;60.136;15.180;2023-07-16T02:01:09;7.47;;;3.47;;
16705;SDS011;8469;60.136;15.180;2023-07-16T02:03:37;7.37;;;3.33;;
16705;SDS011;8469;60.136;15.180;2023-07-16T02:06:04;7.90;;;3.83;;
16705;SDS011;8469;60.136;15.180;2023-07-16T02:08:33;5.28;;;3.60;;
16705;SDS011;8469;60.136;15.180;2023-07-16T02:11:00;6.35;;;3.50;;
16705;SDS011;8469;60.136;15.180;2023-07-16T02:13:27;3.85;;;3.35;;
16705;SDS011;8469;60.136;15.180;2023-07-16T02:15:55;7.60;;;3.37;;
16705;SDS011;8469;60.136;15.180;2023-07-16T02:18:22;6.12;;;3.70;;
16705;SDS011;8469;60.136;15.180;2023-07-16T02:20:49;8.63;;;4.00;;
16705;SDS011;8469;60.136;15.180;2023-07-16T02:23:17;7.53;;;3.77;;
16705;SDS011;8469;60.136;15.180;2023-07-16T02:25:44;6.08;;;4.05;;
16705;SDS011;8469;60.136;15.180;2023-07-16T02:28:11;5.63;;;3.80;;
16705;SDS011;8469;60.136;15.180;2023-07-16T02:30:40;4.25;;;3.37;;
16705;SDS011;8469;60.136;15.180;2023-07-16T02:33:09;6.20;;;3.33;;
16705;SDS011;8469;60.136;15.180;2023-07-16T02:35:36;5.53;;;3.60;;
16705;SDS011;8469;60.136;15.180;2023-07-16T02:38:04;6.15;;;3.83;;
16705;SDS011;8469;60.136;15.180;2023-07-16T02:40:31;8.90;;;3.75;;
16705;SDS011;8469;60.136;15.180;2023-07-16T02:42:58;5.45;;;4.05;;
16705;SDS011;8469;60.136;15.180;2023-07-16T02:45:25;7.17;;;3.63;;
16705;SDS011;8469;60.136;15.180;2023-07-16T02:47:53;4.72;;;3.77;;
16705;SDS011;8469;60.136;15.180;2023-07-16T02:50:20;5.85;;;3.60;;
16705;SDS011;8469;60.136;15.180;2023-07-16T02:52:47;5.87;;;3.70;;
16705;SDS011;8469;60.136;15.180;2023-07-16T02:55:15;8.40;;;4.15;;
16705;SDS011;8469;60.136;15.180;2023-07-16T02:57:42;5.15;;;3.90;;
16705;SDS011;8469;60.136;15.180;2023-07-16T03:00:09;7.65;;;3.87;;
16705;SDS011;8469;60.136;15.180;2023-07-16T03:02:37;6.50;;;3.87;;
16705;SDS011;8469;60.136;15.180;2023-07-16T03:05:04;6.12;;;3.72;;
16705;SDS011;8469;60.136;15.180;2023-07-16T03:07:31;4.47;;;3.98;;
16705;SDS011;8469;60.136;15.180;2023-07-16T03:09:59;4.45;;;3.55;;
16705;SDS011;8469;60.136;15.180;2023-07-16T03:12:26;6.60;;;4.10;;
16705;SDS011;8469;60.136;15.180;2023-07-16T03:14:54;5.80;;;3.70;;
16705;SDS011;8469;60.136;15.180;2023-07-16T03:17:21;5.20;;;3.55;;
16705;SDS011;8469;60.136;15.180;2023-07-16T03:19:48;6.42;;;3.60;;
16705;SDS011;8469;60.136;15.180;2023-07-16T03:22:16;7.58;;;4.20;;
16705;SDS011;8469;60.136;15.180;2023-07-16T03:24:43;6.55;;;4.00;;
16705;SDS011;8469;60.136;15.180;2023-07-16T03:27:10;6.12;;;3.62;;
16705;SDS011;8469;60.136;15.180;2023-07-16T03:29:38;5.67;;;3.97;;
16705;SDS011;8469;60.136;15.180;2023-07-16T03:32:05;6.40;;;3.58;;
16705;SDS011;8469;60.136;15.180;2023-07-16T03:34:32;5.22;;;3.47;;
16705;SDS011;8469;60.136;15.180;2023-07-16T03:37:00;6.57;;;3.93;;
16705;SDS011;8469;60.136;15.180;2023-07-16T03:39:27;7.70;;;3.90;;
16705;SDS011;8469;60.136;15.180;2023-07-16T03:41:54;7.85;;;3.90;;
16705;SDS011;8469;60.136;15.180;2023-07-16T03:44:22;6.53;;;3.90;;
16705;SDS011;8469;60.136;15.180;2023-07-16T03:46:49;6.05;;;4.42;;
16705;SDS011;8469;60.136;15.180;2023-07-16T03:49:16;6.03;;;3.92;;
16705;SDS011;8469;60.136;15.180;2023-07-16T03:51:44;5.90;;;4.00;;
16705;SDS011;8469;60.136;15.180;2023-07-16T03:54:11;6.97;;;4.15;;
16705;SDS011;8469;60.136;15.180;2023-07-16T03:56:38;5.90;;;3.87;;
16705;SDS011;8469;60.136;15.180;2023-07-16T03:59:06;8.60;;;4.65;;
16705;SDS011;8469;60.136;15.180;2023-07-16T04:01:33;6.12;;;4.00;;
16705;SDS011;8469;60.136;15.180;2023-07-16T04:04:00;8.48;;;4.35;;
16705;SDS011;8469;60.136;15.180;2023-07-16T04:06:28;9.63;;;4.08;;
16705;SDS011;8469;60.136;15.180;2023-07-16T04:08:55;7.72;;;3.80;;
16705;SDS011;8469;60.136;15.180;2023-07-16T04:11:22;6.25;;;3.87;;
16705;SDS011;8469;60.136;15.180;2023-07-16T04:13:50;5.00;;;3.65;;
16705;SDS011;8469;60.136;15.180;2023-07-16T04:16:17;6.90;;;4.60;;
16705;SDS011;8469;60.136;15.180;2023-07-16T04:18:44;6.53;;;3.90;;
16705;SDS011;8469;60.136;15.180;2023-07-16T04:21:11;6.67;;;4.12;;
16705;SDS011;8469;60.136;15.180;2023-07-16T04:23:39;8.90;;;4.25;;
16705;SDS011;8469;60.136;15.180;2023-07-16T04:26:06;7.78;;;4.53;;
16705;SDS011;8469;60.136;15.180;2023-07-16T04:28:33;9.38;;;4.72;;
16705;SDS011;8469;60.136;15.180;2023-07-16T04:31:01;10.05;;;4.67;;
16705;SDS011;8469;60.136;15.180;2023-07-16T04:33:28;8.03;;;4.40;;
16705;SDS011;8469;60.136;15.180;2023-07-16T04:35:55;7.62;;;4.20;;
16705;SDS011;8469;60.136;15.180;2023-07-16T04:38:22;7.75;;;4.28;;
16705;SDS011;8469;60.136;15.180;2023-07-16T04:40:50;8.83;;;4.40;;
16705;SDS011;8469;60.136;15.180;2023-07-16T04:43:17;8.10;;;4.12;;
16705;SDS011;8469;60.136;15.180;2023-07-16T04:45:45;6.83;;;4.53;;
16705;SDS011;8469;60.136;15.180;2023-07-16T04:48:13;6.62;;;4.17;;
16705;SDS011;8469;60.136;15.180;2023-07-16T04:50:40;6.40;;;4.23;;
16705;SDS011;8469;60.136;15.180;2023-07-16T04:53:07;7.90;;;4.55;;
16705;SDS011;8469;60.136;15.180;2023-07-16T04:55:36;6.03;;;4.30;;
16705;SDS011;8469;60.136;15.180;2023-07-16T04:58:07;8.58;;;4.40;;
16705;SDS011;8469;60.136;15.180;2023-07-16T05:00:34;5.20;;;3.90;;
16705;SDS011;8469;60.136;15.180;2023-07-16T05:03:01;5.30;;;4.40;;
16705;SDS011;8469;60.136;15.180;2023-07-16T05:05:29;5.33;;;4.42;;
16705;SDS011;8469;60.136;15.180;2023-07-16T05:07:56;7.70;;;4.20;;
16705;SDS011;8469;60.136;15.180;2023-07-16T05:10:24;6.30;;;4.17;;
16705;SDS011;8469;60.136;15.180;2023-07-16T05:12:51;8.28;;;4.22;;
16705;SDS011;8469;60.136;15.180;2023-07-16T05:15:18;7.45;;;4.20;;
16705;SDS011;8469;60.136;15.180;2023-07-16T05:17:45;6.80;;;4.00;;
16705;SDS011;8469;60.136;15.180;2023-07-16T05:20:13;5.22;;;4.03;;
16705;SDS011;8469;60.136;15.180;2023-07-16T05:22:40;6.37;;;4.15;;
16705;SDS011;8469;60.136;15.180;2023-07-16T05:25:08;6.77;;;4.23;;
16705;SDS011;8469;60.136;15.180;2023-07-16T05:27:38;7.67;;;4.40;;
16705;SDS011;8469;60.136;15.180;2023-07-16T05:30:06;6.15;;;4.10;;
16705;SDS011;8469;60.136;15.180;2023-07-16T05:32:34;7.00;;;4.60;;
16705;SDS011;8469;60.136;15.180;2023-07-16T05:35:01;6.72;;;4.25;;
16705;SDS011;8469;60.136;15.180;2023-07-16T05:37:28;6.45;;;4.53;;
16705;SDS011;8469;60.136;15.180;2023-07-16T05:39:56;8.33;;;4.50;;
16705;SDS011;8469;60.136;15.180;2023-07-16T05:42:23;8.43;;;4.85;;
16705;SDS011;8469;60.136;15.180;2023-07-16T05:44:50;6.87;;;4.42;;
16705;SDS011;8469;60.136;15.180;2023-07-16T05:47:17;8.98;;;4.80;;
16705;SDS011;8469;60.136;15.180;2023-07-16T05:49:45;8.43;;;4.30;;
16705;SDS011;8469;60.136;15.180;2023-07-16T05:52:12;11.05;;;4.75;;
16705;SDS011;8469;60.136;15.180;2023-07-16T05:54:39;8.13;;;4.45;;
16705;SDS011;8469;60.136;15.180;2023-07-16T05:57:07;9.08;;;4.20;;
16705;SDS011;8469;60.136;15.180;2023-07-16T05:59:34;7.60;;;4.42;;
16705;SDS011;8469;60.136;15.180;2023-07-16T06:02:03;9.80;;;4.72;;
16705;SDS011;8469;60.136;15.180;2023-07-16T06:04:31;7.30;;;4.30;;
16705;SDS011;8469;60.136;15.180;2023-07-16T06:06:58;6.28;;;3.72;;
16705;SDS011;8469;60.136;15.180;2023-07-16T06:09:26;7.58;;;4.28;;
16705;SDS011;8469;60.136;15.180;2023-07-16T06:11:53;7.40;;;4.22;;
16705;SDS011;8469;60.136;15.180;2023-07-16T06:14:20;5.87;;;3.50;;
16705;SDS011;8469;60.136;15.180;2023-07-16T06:16:48;4.33;;;3.30;;
16705;SDS011;8469;60.136;15.180;2023-07-16T06:19:15;5.17;;;3.30;;
16705;SDS011;8469;60.136;15.180;2023-07-16T06:21:42;4.20;;;2.85;;
16705;SDS011;8469;60.136;15.180;2023-07-16T06:24:09;7.33;;;3.02;;
16705;SDS011;8469;60.136;15.180;2023-07-16T06:26:37;3.70;;;2.90;;
16705;SDS011;8469;60.136;15.180;2023-07-16T06:29:04;4.80;;;2.50;;
16705;SDS011;8469;60.136;15.180;2023-07-16T06:31:32;2.40;;;2.20;;
16705;SDS011;8469;60.136;15.180;2023-07-16T06:33:59;2.27;;;2.05;;
16705;SDS011;8469;60.136;15.180;2023-07-16T06:36:27;3.20;;;2.27;;
16705;SDS011;8469;60.136;15.180;2023-07-16T06:38:54;2.45;;;2.05;;
16705;SDS011;8469;60.136;15.180;2023-07-16T06:41:22;4.80;;;2.02;;
16705;SDS011;8469;60.136;15.180;2023-07-16T06:43:49;2.02;;;1.90;;
16705;SDS011;8469;60.136;15.180;2023-07-16T06:46:16;2.10;;;1.87;;
16705;SDS011;8469;60.136;15.180;2023-07-16T06:48:43;1.90;;;1.80;;
16705;SDS011;8469;60.136;15.180;2023-07-16T06:51:11;2.65;;;1.80;;
16705;SDS011;8469;60.136;15.180;2023-07-16T06:53:38;5.62;;;1.90;;
16705;SDS011;8469;60.136;15.180;2023-07-16T06:56:05;3.30;;;1.60;;
16705;SDS011;8469;60.136;15.180;2023-07-16T06:58:33;2.63;;;1.30;;
16705;SDS011;8469;60.136;15.180;2023-07-16T07:01:00;1.57;;;1.47;;
16705;SDS011;8469;60.136;15.180;2023-07-16T07:03:28;2.10;;;1.40;;
16705;SDS011;8469;60.136;15.180;2023-07-16T07:05:55;1.40;;;1.30;;
16705;SDS011;8469;60.136;15.180;2023-07-16T07:08:22;1.60;;;1.17;;
16705;SDS011;8469;60.136;15.180;2023-07-16T07:10:50;1.25;;;0.95;;
16705;SDS011;8469;60.136;15.180;2023-07-16T07:13:17;1.50;;;0.97;;
16705;SDS011;8469;60.136;15.180;2023-07-16T07:15:44;2.40;;;0.62;;
16705;SDS011;8469;60.136;15.180;2023-07-16T07:18:12;1.15;;;0.80;;
16705;SDS011;8469;60.136;15.180;2023-07-16T07:20:39;0.82;;;0.80;;
16705;SDS011;8469;60.136;15.180;2023-07-16T07:23:07;1.20;;;0.80;;
16705;SDS011;8469;60.136;15.180;2023-07-16T07:25:34;0.90;;;0.70;;
16705;SDS011;8469;60.136;15.180;2023-07-16T07:28:02;0.50;;;0.50;;
16705;SDS011;8469;60.136;15.180;2023-07-16T07:30:30;4.25;;;0.80;;
16705;SDS011;8469;60.136;15.180;2023-07-16T07:32:57;0.68;;;0.68;;
16705;SDS011;8469;60.136;15.180;2023-07-16T07:35:24;1.80;;;0.67;;
16705;SDS011;8469;60.136;15.180;2023-07-16T07:37:54;1.70;;;0.80;;
16705;SDS011;8469;60.136;15.180;2023-07-16T07:40:22;0.98;;;0.62;;
16705;SDS011;8469;60.136;15.180;2023-07-16T07:42:49;1.50;;;0.65;;
16705;SDS011;8469;60.136;15.180;2023-07-16T07:45:16;0.70;;;0.70;;
16705;SDS011;8469;60.136;15.180;2023-07-16T07:47:44;0.80;;;0.80;;
16705;SDS011;8469;60.136;15.180;2023-07-16T07:50:11;0.98;;;0.88;;
16705;SDS011;8469;60.136;15.180;2023-07-16T07:52:38;1.60;;;0.85;;
16705;SDS011;8469;60.136;15.180;2023-07-16T07:55:10;1.80;;;0.80;;
16705;SDS011;8469;60.136;15.180;2023-07-16T07:57:35;0.70;;;0.70;;
16705;SDS011;8469;60.136;15.180;2023-07-16T08:00:02;0.80;;;0.80;;
16705;SDS011;8469;60.136;15.180;2023-07-16T08:02:30;0.80;;;0.80;;
16705;SDS011;8469;60.136;15.180;2023-07-16T08:04:57;3.15;;;0.90;;
16705;SDS011;8469;60.136;15.180;2023-07-16T08:07:24;0.80;;;0.80;;
16705;SDS011;8469;60.136;15.180;2023-07-16T08:09:52;0.90;;;0.90;;
16705;SDS011;8469;60.136;15.180;2023-07-16T08:12:20;0.80;;;0.80;;
16705;SDS011;8469;60.136;15.180;2023-07-16T08:14:47;0.97;;;0.97;;
16705;SDS011;8469;60.136;15.180;2023-07-16T08:17:15;1.10;;;1.10;;
16705;SDS011;8469;60.136;15.180;2023-07-16T08:19:42;1.10;;;1.10;;
16705;SDS011;8469;60.136;15.180;2023-07-16T08:22:10;3.72;;;1.10;;
16705;SDS011;8469;60.136;15.180;2023-07-16T08:24:38;3.00;;;1.12;;
16705;SDS011;8469;60.136;15.180;2023-07-16T08:27:05;2.35;;;1.22;;
16705;SDS011;8469;60.136;15.180;2023-07-16T08:29:34;2.37;;;1.30;;
16705;SDS011;8469;60.136;15.180;2023-07-16T08:32:01;1.40;;;1.30;;
16705;SDS011;8469;60.136;15.180;2023-07-16T08:34:30;1.52;;;1.22;;
16705;SDS011;8469;60.136;15.180;2023-07-16T08:36:57;1.50;;;1.40;;
16705;SDS011;8469;60.136;15.180;2023-07-16T08:39:25;1.50;;;1.40;;
16705;SDS011;8469;60.136;15.180;2023-07-16T08:41:52;3.05;;;1.25;;
16705;SDS011;8469;60.136;15.180;2023-07-16T08:44:20;3.70;;;1.50;;
16705;SDS011;8469;60.136;15.180;2023-07-16T08:46:47;1.57;;;1.47;;
16705;SDS011;8469;60.136;15.180;2023-07-16T08:49:15;2.52;;;2.12;;
16705;SDS011;8469;60.136;15.180;2023-07-16T08:51:48;1.65;;;1.60;;
16705;SDS011;8469;60.136;15.180;2023-07-16T08:54:15;1.60;;;1.50;;
16705;SDS011;8469;60.136;15.180;2023-07-16T08:56:43;1.80;;;1.42;;
16705;SDS011;8469;60.136;15.180;2023-07-16T08:59:11;2.70;;;1.60;;
16705;SDS011;8469;60.136;15.180;2023-07-16T09:01:39;2.17;;;1.60;;
16705;SDS011;8469;60.136;15.180;2023-07-16T09:04:08;1.72;;;1.62;;
16705;SDS011;8469;60.136;15.180;2023-07-16T09:06:35;3.47;;;1.55;;
16705;SDS011;8469;60.136;15.180;2023-07-16T09:09:02;1.70;;;1.60;;
16705;SDS011;8469;60.136;15.180;2023-07-16T09:11:33;2.00;;;1.55;;
16705;SDS011;8469;60.136;15.180;2023-07-16T09:14:01;2.00;;;1.80;;
16705;SDS011;8469;60.136;15.180;2023-07-16T09:16:32;1.80;;;1.70;;
16705;SDS011;8469;60.136;15.180;2023-07-16T09:19:08;3.75;;;1.90;;
16705;SDS011;8469;60.136;15.180;2023-07-16T09:21:36;1.70;;;1.60;;
16705;SDS011;8469;60.136;15.180;2023-07-16T09:24:09;2.08;;;1.70;;
16705;SDS011;8469;60.136;15.180;2023-07-16T09:26:37;3.43;;;1.90;;
16705;SDS011;8469;60.136;15.180;2023-07-16T09:29:07;3.25;;;2.30;;
16705;SDS011;8469;60.136;15.180;2023-07-16T09:31:34;2.10;;;1.90;;
16705;SDS011;8469;60.136;15.180;2023-07-16T09:34:02;2.12;;;1.95;;
16705;SDS011;8469;60.136;15.180;2023-07-16T09:36:29;2.50;;;2.10;;
16705;SDS011;8469;60.136;15.180;2023-07-16T09:38:56;4.30;;;2.15;;
16705;SDS011;8469;60.136;15.180;2023-07-16T09:41:24;3.62;;;2.27;;
16705;SDS011;8469;60.136;15.180;2023-07-16T09:43:51;3.65;;;2.00;;
16705;SDS011;8469;60.136;15.180;2023-07-16T09:46:20;2.17;;;2.03;;
16705;SDS011;8469;60.136;15.180;2023-07-16T09:48:47;3.08;;;2.45;;
16705;SDS011;8469;60.136;15.180;2023-07-16T09:51:15;4.00;;;2.35;;
16705;SDS011;8469;60.136;15.180;2023-07-16T09:53:47;4.83;;;2.30;;
16705;SDS011;8469;60.136;15.180;2023-07-16T09:56:11;3.40;;;2.10;;
16705;SDS011;8469;60.136;15.180;2023-07-16T09:58:39;3.58;;;2.10;;
16705;SDS011;8469;60.136;15.180;2023-07-16T10:01:07;4.05;;;2.10;;
16705;SDS011;8469;60.136;15.180;2023-07-16T10:03:35;2.98;;;2.33;;
16705;SDS011;8469;60.136;15.180;2023-07-16T10:06:05;3.27;;;2.00;;
16705;SDS011;8469;60.136;15.180;2023-07-16T10:08:33;2.40;;;2.20;;
16705;SDS011;8469;60.136;15.180;2023-07-16T10:11:01;2.45;;;2.15;;
16705;SDS011;8469;60.136;15.180;2023-07-16T10:13:28;2.90;;;2.00;;
16705;SDS011;8469;60.136;15.180;2023-07-16T10:15:56;4.87;;;2.20;;
16705;SDS011;8469;60.136;15.180;2023-07-16T10:18:24;4.30;;;2.00;;
16705;SDS011;8469;60.136;15.180;2023-07-16T10:20:51;3.08;;;2.30;;
16705;SDS011;8469;60.136;15.180;2023-07-16T10:23:19;2.08;;;1.87;;
16705;SDS011;8469;60.136;15.180;2023-07-16T10:25:59;2.47;;;2.00;;
16705;SDS011;8469;60.136;15.180;2023-07-16T10:28:26;2.85;;;2.02;;
16705;SDS011;8469;60.136;15.180;2023-07-16T10:30:54;3.40;;;2.50;;
16705;SDS011;8469;60.136;15.180;2023-07-16T10:33:21;2.83;;;2.20;;
16705;SDS011;8469;60.136;15.180;2023-07-16T10:35:48;8.05;;;2.20;;
16705;SDS011;8469;60.136;15.180;2023-07-16T10:38:16;3.20;;;1.90;;
16705;SDS011;8469;60.136;15.180;2023-07-16T10:40:44;3.00;;;1.82;;
16705;SDS011;8469;60.136;15.180;2023-07-16T10:43:14;6.97;;;2.20;;
16705;SDS011;8469;60.136;15.180;2023-07-16T10:45:42;2.80;;;2.02;;
16705;SDS011;8469;60.136;15.180;2023-07-16T10:48:11;2.52;;;2.15;;
16705;SDS011;8469;60.136;15.180;2023-07-16T10:50:38;4.90;;;2.10;;
16705;SDS011;8469;60.136;15.180;2023-07-16T10:53:05;2.23;;;1.80;;
16705;SDS011;8469;60.136;15.180;2023-07-16T10:55:32;3.27;;;2.00;;
16705;SDS011;8469;60.136;15.180;2023-07-16T10:58:03;2.27;;;2.00;;
16705;SDS011;8469;60.136;15.180;2023-07-16T11:00:32;4.85;;;2.15;;
16705;SDS011;8469;60.136;15.180;2023-07-16T11:03:01;4.53;;;1.98;;
16705;SDS011;8469;60.136;15.180;2023-07-16T11:05:28;3.50;;;1.92;;
16705;SDS011;8469;60.136;15.180;2023-07-16T11:07:56;1.80;;;1.70;;
16705;SDS011;8469;60.136;15.180;2023-07-16T11:10:23;6.12;;;2.17;;
16705;SDS011;8469;60.136;15.180;2023-07-16T11:12:52;4.00;;;2.12;;
16705;SDS011;8469;60.136;15.180;2023-07-16T11:15:33;2.07;;;1.70;;
16705;SDS011;8469;60.136;15.180;2023-07-16T11:18:01;2.22;;;2.02;;
16705;SDS011;8469;60.136;15.180;2023-07-16T11:20:29;2.58;;;2.20;;
16705;SDS011;8469;60.136;15.180;2023-07-16T11:23:01;5.08;;;2.10;;
16705;SDS011;8469;60.136;15.180;2023-07-16T11:25:25;4.95;;;2.20;;
16705;SDS011;8469;60.136;15.180;2023-07-16T11:27:54;2.37;;;2.00;;
16705;SDS011;8469;60.136;15.180;2023-07-16T11:30:25;4.72;;;2.20;;
16705;SDS011;8469;60.136;15.180;2023-07-16T11:32:53;3.83;;;2.20;;
16705;SDS011;8469;60.136;15.180;2023-07-16T11:35:21;3.83;;;2.10;;
16705;SDS011;8469;60.136;15.180;2023-07-16T11:37:49;2.52;;;2.02;;
16705;SDS011;8469;60.136;15.180;2023-07-16T11:40:17;4.40;;;1.95;;
16705;SDS011;8469;60.136;15.180;2023-07-16T11:42:44;4.85;;;2.10;;
16705;SDS011;8469;60.136;15.180;2023-07-16T11:45:16;3.00;;;1.80;;
16705;SDS011;8469;60.136;15.180;2023-07-16T11:47:44;3.83;;;1.90;;
16705;SDS011;8469;60.136;15.180;2023-07-16T11:50:11;2.67;;;2.08;;
16705;SDS011;8469;60.136;15.180;2023-07-16T11:52:39;3.50;;;1.80;;
16705;SDS011;8469;60.136;15.180;2023-07-16T11:55:07;2.47;;;1.85;;
16705;SDS011;8469;60.136;15.180;2023-07-16T11:57:34;3.93;;;2.00;;
16705;SDS011;8469;60.136;15.180;2023-07-16T12:00:02;2.60;;;1.87;;
16705;SDS011;8469;60.136;15.180;2023-07-16T12:02:32;4.35;;;1.87;;
16705;SDS011;8469;60.136;15.180;2023-07-16T12:04:59;2.37;;;1.87;;
16705;SDS011;8469;60.136;15.180;2023-07-16T12:07:35;6.05;;;1.90;;
16705;SDS011;8469;60.136;15.180;2023-07-16T12:10:05;3.52;;;1.85;;
16705;SDS011;8469;60.136;15.180;2023-07-16T12:12:33;3.40;;;1.60;;
16705;SDS011;8469;60.136;15.180;2023-07-16T12:15:02;3.08;;;1.60;;
16705;SDS011;8469;60.136;15.180;2023-07-16T12:17:29;3.13;;;1.60;;
16705;SDS011;8469;60.136;15.180;2023-07-16T12:19:57;4.35;;;1.98;;
16705;SDS011;8469;60.136;15.180;2023-07-16T12:22:24;4.05;;;1.80;;
16705;SDS011;8469;60.136;15.180;2023-07-16T12:24:51;2.37;;;1.57;;
16705;SDS011;8469;60.136;15.180;2023-07-16T12:27:19;6.00;;;2.13;;
16705;SDS011;8469;60.136;15.180;2023-07-16T12:29:46;6.80;;;2.30;;
16705;SDS011;8469;60.136;15.180;2023-07-16T12:32:13;3.50;;;1.57;;
16705;SDS011;8469;60.136;15.180;2023-07-16T12:34:46;4.22;;;1.82;;
16705;SDS011;8469;60.136;15.180;2023-07-16T12:37:11;4.92;;;1.87;;
16705;SDS011;8469;60.136;15.180;2023-07-16T12:39:39;3.50;;;1.60;;
16705;SDS011;8469;60.136;15.180;2023-07-16T12:42:06;6.22;;;1.80;;
16705;SDS011;8469;60.136;15.180;2023-07-16T12:44:34;4.50;;;1.50;;
16705;SDS011;8469;60.136;15.180;2023-07-16T12:47:01;5.72;;;1.90;;
16705;SDS011;8469;60.136;15.180;2023-07-16T12:49:30;5.92;;;1.80;;
16705;SDS011;8469;60.136;15.180;2023-07-16T12:51:57;6.55;;;1.62;;
16705;SDS011;8469;60.136;15.180;2023-07-16T12:54:24;4.28;;;1.65;;
16705;SDS011;8469;60.136;15.180;2023-07-16T12:56:52;4.75;;;1.55;;
16705;SDS011;8469;60.136;15.180;2023-07-16T12:59:20;5.72;;;1.87;;
16705;SDS011;8469;60.136;15.180;2023-07-16T13:01:47;5.65;;;1.60;;
16705;SDS011;8469;60.136;15.180;2023-07-16T13:04:14;6.05;;;1.80;;
16705;SDS011;8469;60.136;15.180;2023-07-16T13:06:43;7.42;;;1.70;;
16705;SDS011;8469;60.136;15.180;2023-07-16T13:09:17;4.78;;;1.50;;
16705;SDS011;8469;60.136;15.180;2023-07-16T13:11:42;5.70;;;2.00;;
16705;SDS011;8469;60.136;15.180;2023-07-16T13:14:10;4.05;;;1.80;;
16705;SDS011;8469;60.136;15.180;2023-07-16T13:16:37;3.85;;;1.82;;
16705;SDS011;8469;60.136;15.180;2023-07-16T13:19:05;2.30;;;1.70;;
16705;SDS011;8469;60.136;15.180;2023-07-16T13:21:32;3.70;;;1.60;;
16705;SDS011;8469;60.136;15.180;2023-07-16T13:23:59;3.58;;;1.80;;
16705;SDS011;8469;60.136;15.180;2023-07-16T13:26:26;5.65;;;2.10;;
16705;SDS011;8469;60.136;15.180;2023-07-16T13:28:54;5.92;;;1.75;;
16705;SDS011;8469;60.136;15.180;2023-07-16T13:31:21;3.50;;;1.50;;
16705;SDS011;8469;60.136;15.180;2023-07-16T13:33:48;5.10;;;1.80;;
16705;SDS011;8469;60.136;15.180;2023-07-16T13:36:16;3.77;;;1.65;;
16705;SDS011;8469;60.136;15.180;2023-07-16T13:38:43;5.78;;;1.75;;
16705;SDS011;8469;60.136;15.180;2023-07-16T13:41:10;4.55;;;1.60;;
16705;SDS011;8469;60.136;15.180;2023-07-16T13:43:38;3.42;;;2.10;;
16705;SDS011;8469;60.136;15.180;2023-07-16T13:46:05;3.40;;;1.70;;
16705;SDS011;8469;60.136;15.180;2023-07-16T13:48:32;3.85;;;1.72;;
16705;SDS011;8469;60.136;15.180;2023-07-16T13:51:00;3.37;;;1.75;;
16705;SDS011;8469;60.136;15.180;2023-07-16T13:53:27;3.77;;;1.50;;
16705;SDS011;8469;60.136;15.180;2023-07-16T13:55:55;6.67;;;1.55;;
16705;SDS011;8469;60.136;15.180;2023-07-16T13:58:23;5.17;;;1.80;;
16705;SDS011;8469;60.136;15.180;2023-07-16T14:00:50;6.10;;;1.50;;
16705;SDS011;8469;60.136;15.180;2023-07-16T14:03:17;5.00;;;1.87;;
16705;SDS011;8469;60.136;15.180;2023-07-16T14:05:44;6.55;;;1.90;;
16705;SDS011;8469;60.136;15.180;2023-07-16T14:08:12;6.90;;;1.72;;
16705;SDS011;8469;60.136;15.180;2023-07-16T14:10:40;3.83;;;1.73;;
16705;SDS011;8469;60.136;15.180;2023-07-16T14:13:07;6.47;;;1.95;;
16705;SDS011;8469;60.136;15.180;2023-07-16T14:15:34;4.30;;;1.62;;
16705;SDS011;8469;60.136;15.180;2023-07-16T14:18:02;6.03;;;1.90;;
16705;SDS011;8469;60.136;15.180;2023-07-16T14:20:30;6.87;;;2.27;;
16705;SDS011;8469;60.136;15.180;2023-07-16T14:22:57;3.98;;;1.90;;
16705;SDS011;8469;60.136;15.180;2023-07-16T14:25:24;7.60;;;2.10;;
16705;SDS011;8469;60.136;15.180;2023-07-16T14:27:52;6.17;;;1.75;;
16705;SDS011;8469;60.136;15.180;2023-07-16T14:30:21;5.83;;;2.15;;
16705;SDS011;8469;60.136;15.180;2023-07-16T14:32:48;8.15;;;2.10;;
16705;SDS011;8469;60.136;15.180;2023-07-16T14:35:15;6.25;;;2.55;;
16705;SDS011;8469;60.136;15.180;2023-07-16T14:37:43;4.13;;;1.87;;
16705;SDS011;8469;60.136;15.180;2023-07-16T14:40:10;4.62;;;2.00;;
16705;SDS011;8469;60.136;15.180;2023-07-16T14:42:38;7.33;;;2.58;;
16705;SDS011;8469;60.136;15.180;2023-07-16T14:45:06;7.03;;;2.40;;
16705;SDS011;8469;60.136;15.180;2023-07-16T14:47:34;7.05;;;2.08;;
16705;SDS011;8469;60.136;15.180;2023-07-16T14:50:01;5.03;;;2.25;;
16705;SDS011;8469;60.136;15.180;2023-07-16T14:52:28;4.43;;;1.80;;
16705;SDS011;8469;60.136;15.180;2023-07-16T14:54:56;7.10;;;2.07;;
16705;SDS011;8469;60.136;15.180;2023-07-16T14:57:23;6.45;;;2.30;;
16705;SDS011;8469;60.136;15.180;2023-07-16T14:59:51;8.18;;;2.47;;
16705;SDS011;8469;60.136;15.180;2023-07-16T15:02:18;11.03;;;2.70;;